Weather at Pocahontas Municipal Airport

Public forecast

Using degrees Fahrenheit for public forecast. Weather courtesy of forecast.io.

Closest aviation weather report (METAR) to Pocahontas Municipal Airport

Closest report is Walnut Ridge Regional Airport, 7.4 nm (13.7 km) SSE. Retrieved 2021/01/28 05:56 UTC (45 minutes ago):

KARG 280556Z AUTO 01011KT 10SM OVC029 00/M04 A3056 RMK AO2 SLP353 T00001044 10022 20000 400440000 51026 FZRANO

Closest aviation forecast (TAF) to Pocahontas Municipal Airport

Closest forecast is Jonesboro Municipal Airport, 29.0 nm (53.7 km) SSE. Retrieved 2021/01/28 06:33 UTC (8 minutes ago):

TAF KJBR 280530Z 2806/2906 01013G20KT P6SM OVC030 FM280900 02007KT P6SM OVC020 FM281100 03005KT P6SM OVC020 FM281700 05007KT P6SM FEW250 FM282200 07005KT P6SM SKC FM290100 07003KT P6SM SKC